sensor_id;sensor_type;location;lat;lon;timestamp;pressure;altitude;pressure_sealevel;temperature;humidity
42431;BME280;28070;47.462;19.036;2022-08-24T00:01:55;100102.53;;;20.18;95.34
42431;BME280;28070;47.462;19.036;2022-08-24T00:04:23;100113.13;;;20.19;95.87
42431;BME280;28070;47.462;19.036;2022-08-24T00:06:54;100112.41;;;20.17;95.32
42431;BME280;28070;47.462;19.036;2022-08-24T00:09:22;100108.38;;;20.12;95.93
42431;BME280;28070;47.462;19.036;2022-08-24T00:11:50;100098.84;;;20.08;96.50
42431;BME280;28070;47.462;19.036;2022-08-24T00:14:19;100101.75;;;20.05;96.70
42431;BME280;28070;47.462;19.036;2022-08-24T00:16:48;100104.44;;;20.05;96.91
42431;BME280;28070;47.462;19.036;2022-08-24T00:19:16;100096.66;;;20.13;96.19
42431;BME280;28070;47.462;19.036;2022-08-24T00:21:44;100095.81;;;20.12;95.98
42431;BME280;28070;47.462;19.036;2022-08-24T00:24:12;100096.66;;;20.13;95.86
42431;BME280;28070;47.462;19.036;2022-08-24T00:26:41;100107.63;;;20.10;96.25
42431;BME280;28070;47.462;19.036;2022-08-24T00:29:09;100096.19;;;20.08;96.34
42431;BME280;28070;47.462;19.036;2022-08-24T00:31:40;100094.06;;;20.00;96.88
42431;BME280;28070;47.462;19.036;2022-08-24T00:34:08;100094.19;;;19.98;97.22
42431;BME280;28070;47.462;19.036;2022-08-24T00:36:39;100100.16;;;20.02;97.15
42431;BME280;28070;47.462;19.036;2022-08-24T00:39:08;100099.91;;;20.05;97.08
42431;BME280;28070;47.462;19.036;2022-08-24T00:41:39;100097.34;;;20.04;96.40
42431;BME280;28070;47.462;19.036;2022-08-24T00:44:09;100097.72;;;19.99;97.43
42431;BME280;28070;47.462;19.036;2022-08-24T00:46:49;100096.25;;;19.95;97.39
42431;BME280;28070;47.462;19.036;2022-08-24T00:49:23;100100.97;;;19.91;97.91
42431;BME280;28070;47.462;19.036;2022-08-24T00:51:56;100097.78;;;19.86;97.90
42431;BME280;28070;47.462;19.036;2022-08-24T00:54:31;100092.44;;;19.86;98.97
42431;BME280;28070;47.462;19.036;2022-08-24T00:57:04;100094.00;;;19.89;98.14
42431;BME280;28070;47.462;19.036;2022-08-24T00:59:40;100093.03;;;19.90;98.56
42431;BME280;28070;47.462;19.036;2022-08-24T01:02:17;100088.78;;;19.87;98.03
42431;BME280;28070;47.462;19.036;2022-08-24T01:04:50;100088.78;;;19.87;98.36
42431;BME280;28070;47.462;19.036;2022-08-24T01:07:21;100089.00;;;19.84;98.55
42431;BME280;28070;47.462;19.036;2022-08-24T01:09:51;100093.22;;;19.76;98.99
42431;BME280;28070;47.462;19.036;2022-08-24T01:12:20;100085.31;;;19.74;99.74
42431;BME280;28070;47.462;19.036;2022-08-24T01:14:52;100100.53;;;19.74;99.24
42431;BME280;28070;47.462;19.036;2022-08-24T01:17:22;100099.25;;;19.66;99.48
42431;BME280;28070;47.462;19.036;2022-08-24T01:20:09;100103.75;;;19.66;100.00
42431;BME280;28070;47.462;19.036;2022-08-24T01:22:49;100104.84;;;19.63;100.00
42431;BME280;28070;47.462;19.036;2022-08-24T01:25:22;100094.13;;;19.63;100.00
42431;BME280;28070;47.462;19.036;2022-08-24T01:27:53;100094.38;;;19.60;100.00
42431;BME280;28070;47.462;19.036;2022-08-24T01:30:25;100093.63;;;19.58;100.00
42431;BME280;28070;47.462;19.036;2022-08-24T01:33:06;100101.78;;;19.57;100.00
42431;BME280;28070;47.462;19.036;2022-08-24T01:35:36;100113.53;;;19.54;100.00
42431;BME280;28070;47.462;19.036;2022-08-24T01:38:07;100112.78;;;19.52;100.00
42431;BME280;28070;47.462;19.036;2022-08-24T01:40:42;100122.03;;;19.48;100.00
42431;BME280;28070;47.462;19.036;2022-08-24T01:43:12;100121.28;;;19.46;100.00
42431;BME280;28070;47.462;19.036;2022-08-24T01:45:42;100127.38;;;19.48;100.00
42431;BME280;28070;47.462;19.036;2022-08-24T01:48:10;100131.25;;;19.44;100.00
42431;BME280;28070;47.462;19.036;2022-08-24T01:50:39;100126.09;;;19.41;100.00
42431;BME280;28070;47.462;19.036;2022-08-24T01:53:09;100124.63;;;19.37;100.00
42431;BME280;28070;47.462;19.036;2022-08-24T01:55:39;100129.63;;;19.41;100.00
42431;BME280;28070;47.462;19.036;2022-08-24T01:58:08;100131.25;;;19.44;100.00
42431;BME280;28070;47.462;19.036;2022-08-24T02:00:40;100122.34;;;19.44;100.00
42431;BME280;28070;47.462;19.036;2022-08-24T02:03:09;100122.25;;;19.45;100.00
42431;BME280;28070;47.462;19.036;2022-08-24T02:05:38;100132.22;;;19.43;100.00
42431;BME280;28070;47.462;19.036;2022-08-24T02:08:08;100122.81;;;19.37;100.00
42431;BME280;28070;47.462;19.036;2022-08-24T02:10:38;100119.28;;;19.37;100.00
42431;BME280;28070;47.462;19.036;2022-08-24T02:13:14;100116.16;;;19.30;100.00
42431;BME280;28070;47.462;19.036;2022-08-24T02:15:43;100115.31;;;19.30;100.00
42431;BME280;28070;47.462;19.036;2022-08-24T02:18:13;100122.50;;;19.29;100.00
42431;BME280;28070;47.462;19.036;2022-08-24T02:20:42;100128.81;;;19.28;100.00
42431;BME280;28070;47.462;19.036;2022-08-24T02:23:12;100136.13;;;19.26;100.00
42431;BME280;28070;47.462;19.036;2022-08-24T02:25:42;100136.00;;;19.28;100.00
42431;BME280;28070;47.462;19.036;2022-08-24T02:28:11;100136.47;;;19.22;100.00
42431;BME280;28070;47.462;19.036;2022-08-24T02:30:39;100131.53;;;19.16;100.00
42431;BME280;28070;47.462;19.036;2022-08-24T02:33:08;100130.78;;;19.14;100.00
42431;BME280;28070;47.462;19.036;2022-08-24T02:35:36;100138.69;;;19.15;100.00
42431;BME280;28070;47.462;19.036;2022-08-24T02:38:06;100127.13;;;19.15;100.00
42431;BME280;28070;47.462;19.036;2022-08-24T02:40:36;100139.44;;;19.17;100.00
42431;BME280;28070;47.462;19.036;2022-08-24T02:43:06;100135.41;;;19.11;100.00
42431;BME280;28070;47.462;19.036;2022-08-24T02:45:37;100127.03;;;19.16;100.00
42431;BME280;28070;47.462;19.036;2022-08-24T02:48:05;100132.38;;;19.16;100.00
42431;BME280;28070;47.462;19.036;2022-08-24T02:50:37;100125.97;;;19.19;100.00
42431;BME280;28070;47.462;19.036;2022-08-24T02:53:06;100131.31;;;19.19;100.00
42431;BME280;28070;47.462;19.036;2022-08-24T02:55:35;100138.47;;;19.18;100.00
42431;BME280;28070;47.462;19.036;2022-08-24T02:58:07;100136.13;;;19.14;100.00
42431;BME280;28070;47.462;19.036;2022-08-24T03:00:38;100128.56;;;19.07;100.00
42431;BME280;28070;47.462;19.036;2022-08-24T03:03:08;100130.38;;;19.07;100.00
42431;BME280;28070;47.462;19.036;2022-08-24T03:05:37;100127.59;;;19.08;100.00
42431;BME280;28070;47.462;19.036;2022-08-24T03:08:06;100116.88;;;19.08;100.00
42431;BME280;28070;47.462;19.036;2022-08-24T03:10:35;100126.50;;;19.11;100.00
42431;BME280;28070;47.462;19.036;2022-08-24T03:13:05;100127.72;;;19.07;100.00
42431;BME280;28070;47.462;19.036;2022-08-24T03:15:34;100125.66;;;19.10;100.00
42431;BME280;28070;47.462;19.036;2022-08-24T03:18:02;100127.72;;;19.07;100.00
42431;BME280;28070;47.462;19.036;2022-08-24T03:20:30;100135.19;;;19.02;100.00
42431;BME280;28070;47.462;19.036;2022-08-24T03:22:59;100137.34;;;18.97;100.00
42431;BME280;28070;47.462;19.036;2022-08-24T03:25:27;100130.47;;;18.93;100.00
42431;BME280;28070;47.462;19.036;2022-08-24T03:27:55;100131.44;;;18.92;100.00
42431;BME280;28070;47.462;19.036;2022-08-24T03:30:25;100131.56;;;18.90;100.00
42431;BME280;28070;47.462;19.036;2022-08-24T03:32:54;100133.38;;;18.90;100.00
42431;BME280;28070;47.462;19.036;2022-08-24T03:35:23;100138.09;;;18.86;100.00
42431;BME280;28070;47.462;19.036;2022-08-24T03:37:51;100141.50;;;18.88;100.00
42431;BME280;28070;47.462;19.036;2022-08-24T03:40:20;100141.50;;;18.88;100.00
42431;BME280;28070;47.462;19.036;2022-08-24T03:42:53;100130.81;;;18.88;100.00
42431;BME280;28070;47.462;19.036;2022-08-24T03:45:22;100135.66;;;18.83;100.00
42431;BME280;28070;47.462;19.036;2022-08-24T03:47:52;100140.78;;;18.86;100.00
42431;BME280;28070;47.462;19.036;2022-08-24T03:50:21;100139.91;;;18.86;100.00
42431;BME280;28070;47.462;19.036;2022-08-24T03:52:50;100140.66;;;18.88;100.00
42431;BME280;28070;47.462;19.036;2022-08-24T03:55:19;100147.41;;;18.93;100.00
42431;BME280;28070;47.462;19.036;2022-08-24T03:57:47;100141.00;;;18.96;100.00
42431;BME280;28070;47.462;19.036;2022-08-24T04:00:16;100147.41;;;18.93;100.00
42431;BME280;28070;47.462;19.036;2022-08-24T04:02:55;100141.28;;;18.91;100.00
42431;BME280;28070;47.462;19.036;2022-08-24T04:05:25;100147.72;;;18.89;100.00
42431;BME280;28070;47.462;19.036;2022-08-24T04:08:00;100152.34;;;18.87;100.00
42431;BME280;28070;47.462;19.036;2022-08-24T04:10:28;100146.88;;;18.88;100.00
42431;BME280;28070;47.462;19.036;2022-08-24T04:12:57;100143.13;;;18.91;100.00
42431;BME280;28070;47.462;19.036;2022-08-24T04:15:29;100141.09;;;18.94;100.00
42431;BME280;28070;47.462;19.036;2022-08-24T04:17:59;100142.59;;;18.98;100.00
42431;BME280;28070;47.462;19.036;2022-08-24T04:20:27;100146.44;;;18.94;100.00
42431;BME280;28070;47.462;19.036;2022-08-24T04:22:55;100145.59;;;18.94;100.00
42431;BME280;28070;47.462;19.036;2022-08-24T04:25:24;100131.75;;;19.00;100.00
42431;BME280;28070;47.462;19.036;2022-08-24T04:27:52;100132.41;;;19.03;100.00
42431;BME280;28070;47.462;19.036;2022-08-24T04:30:21;100137.56;;;19.06;100.00
42431;BME280;28070;47.462;19.036;2022-08-24T04:33:12;100140.22;;;19.06;100.00
42431;BME280;28070;47.462;19.036;2022-08-24T04:35:44;100137.22;;;19.11;100.00
42431;BME280;28070;47.462;19.036;2022-08-24T04:38:15;100135.91;;;19.17;100.00
42431;BME280;28070;47.462;19.036;2022-08-24T04:40:57;100133.78;;;19.22;100.00
42431;BME280;28070;47.462;19.036;2022-08-24T04:43:26;100140.00;;;19.22;100.00
42431;BME280;28070;47.462;19.036;2022-08-24T04:45:57;100135.59;;;19.21;100.00
42431;BME280;28070;47.462;19.036;2022-08-24T04:48:26;100141.47;;;19.26;100.00
42431;BME280;28070;47.462;19.036;2022-08-24T04:51:00;100141.25;;;19.29;100.00
42431;BME280;28070;47.462;19.036;2022-08-24T04:53:29;100142.88;;;19.32;100.00
42431;BME280;28070;47.462;19.036;2022-08-24T04:55:57;100139.22;;;19.33;100.00
42431;BME280;28070;47.462;19.036;2022-08-24T04:58:27;100128.28;;;19.36;100.00
42431;BME280;28070;47.462;19.036;2022-08-24T05:00:57;100128.66;;;19.42;100.00
42431;BME280;28070;47.462;19.036;2022-08-24T05:03:27;100121.19;;;19.48;100.00
42431;BME280;28070;47.462;19.036;2022-08-24T05:05:55;100133.25;;;19.53;100.00
42431;BME280;28070;47.462;19.036;2022-08-24T05:08:24;100137.97;;;19.62;100.00
42431;BME280;28070;47.462;19.036;2022-08-24T05:10:52;100139.34;;;19.68;100.00
42431;BME280;28070;47.462;19.036;2022-08-24T05:13:20;100138.78;;;19.76;100.00
42431;BME280;28070;47.462;19.036;2022-08-24T05:15:49;100141.88;;;19.82;100.00
42431;BME280;28070;47.462;19.036;2022-08-24T05:18:18;100133.25;;;19.90;100.00
42431;BME280;28070;47.462;19.036;2022-08-24T05:20:47;100133.88;;;19.93;100.00
42431;BME280;28070;47.462;19.036;2022-08-24T05:23:16;100142.44;;;19.98;99.90
42431;BME280;28070;47.462;19.036;2022-08-24T05:25:45;100143.66;;;20.06;99.41
42431;BME280;28070;47.462;19.036;2022-08-24T05:28:15;100137.50;;;20.16;98.84
42431;BME280;28070;47.462;19.036;2022-08-24T05:30:43;100139.94;;;20.19;97.89
42431;BME280;28070;47.462;19.036;2022-08-24T05:33:16;100146.56;;;20.26;97.37
42431;BME280;28070;47.462;19.036;2022-08-24T05:35:46;100135.25;;;20.34;97.14
42431;BME280;28070;47.462;19.036;2022-08-24T05:38:15;100139.09;;;20.43;96.31
42431;BME280;28070;47.462;19.036;2022-08-24T05:40:44;100137.66;;;20.50;96.09
42431;BME280;28070;47.462;19.036;2022-08-24T05:43:12;100141.22;;;20.62;95.40
42431;BME280;28070;47.462;19.036;2022-08-24T05:45:42;100141.25;;;20.73;94.54
42431;BME280;28070;47.462;19.036;2022-08-24T05:48:10;100139.44;;;20.84;93.77
42431;BME280;28070;47.462;19.036;2022-08-24T05:51:15;100139.19;;;20.99;91.78
42431;BME280;28070;47.462;19.036;2022-08-24T05:53:52;100131.13;;;21.10;90.46
42431;BME280;28070;47.462;19.036;2022-08-24T05:58:59;100131.63;;;21.37;88.72
42431;BME280;28070;47.462;19.036;2022-08-24T06:01:27;100131.75;;;21.47;88.21
42431;BME280;28070;47.462;19.036;2022-08-24T06:03:56;100132.31;;;21.62;87.63
42431;BME280;28070;47.462;19.036;2022-08-24T06:06:27;100131.19;;;21.76;87.14
42431;BME280;28070;47.462;19.036;2022-08-24T06:08:56;100131.38;;;21.84;85.77
42431;BME280;28070;47.462;19.036;2022-08-24T06:11:27;100133.44;;;21.91;85.60
42431;BME280;28070;47.462;19.036;2022-08-24T06:14:00;100132.91;;;21.97;84.75
42431;BME280;28070;47.462;19.036;2022-08-24T06:16:35;100135.75;;;21.96;84.85
42431;BME280;28070;47.462;19.036;2022-08-24T06:19:04;100132.81;;;21.99;83.99
42431;BME280;28070;47.462;19.036;2022-08-24T06:21:35;100139.50;;;22.04;84.00
42431;BME280;28070;47.462;19.036;2022-08-24T06:24:05;100134.03;;;22.06;83.65
42431;BME280;28070;47.462;19.036;2022-08-24T06:26:34;100138.28;;;22.09;83.34
42431;BME280;28070;47.462;19.036;2022-08-24T06:29:20;100133.28;;;22.04;83.26
42431;BME280;28070;47.462;19.036;2022-08-24T06:31:53;100150.88;;;22.08;82.99
42431;BME280;28070;47.462;19.036;2022-08-24T06:34:24;100148.81;;;22.12;82.65
42431;BME280;28070;47.462;19.036;2022-08-24T06:36:54;100153.53;;;22.19;82.44
42431;BME280;28070;47.462;19.036;2022-08-24T06:39:24;100153.91;;;22.26;82.44
42431;BME280;28070;47.462;19.036;2022-08-24T06:41:55;100152.50;;;22.31;82.56
42431;BME280;28070;47.462;19.036;2022-08-24T06:44:32;100160.78;;;22.40;82.10
42431;BME280;28070;47.462;19.036;2022-08-24T06:47:09;100158.19;;;22.49;81.52
42431;BME280;28070;47.462;19.036;2022-08-24T06:49:38;100154.31;;;22.63;81.29
42431;BME280;28070;47.462;19.036;2022-08-24T06:52:08;100158.88;;;22.72;80.30
42431;BME280;28070;47.462;19.036;2022-08-24T06:54:37;100157.66;;;22.76;79.50
42431;BME280;28070;47.462;19.036;2022-08-24T06:57:06;100158.50;;;22.77;79.16
42431;BME280;28070;47.462;19.036;2022-08-24T06:59:34;100167.78;;;22.84;79.32
42431;BME280;28070;47.462;19.036;2022-08-24T07:02:03;100170.38;;;22.95;79.24
42431;BME280;28070;47.462;19.036;2022-08-24T07:04:32;100174.84;;;23.06;77.82
42431;BME280;28070;47.462;19.036;2022-08-24T07:07:21;100167.19;;;23.11;77.67
42431;BME280;28070;47.462;19.036;2022-08-24T07:09:49;100176.31;;;23.19;76.87
42431;BME280;28070;47.462;19.036;2022-08-24T07:12:18;100181.91;;;23.28;76.61
42431;BME280;28070;47.462;19.036;2022-08-24T07:14:46;100178.38;;;23.27;76.27
42431;BME280;28070;47.462;19.036;2022-08-24T07:17:15;100186.97;;;23.21;76.24
42431;BME280;28070;47.462;19.036;2022-08-24T07:19:45;100194.41;;;23.29;75.74
42431;BME280;28070;47.462;19.036;2022-08-24T07:22:28;100194.25;;;23.30;76.40
42431;BME280;28070;47.462;19.036;2022-08-24T07:24:56;100199.38;;;23.33;76.16
42431;BME280;28070;47.462;19.036;2022-08-24T07:27:26;100200.78;;;23.37;76.05
42431;BME280;28070;47.462;19.036;2022-08-24T07:29:54;100199.97;;;23.46;75.96
42431;BME280;28070;47.462;19.036;2022-08-24T07:32:43;100205.50;;;23.45;76.21
42431;BME280;28070;47.462;19.036;2022-08-24T07:35:11;100208.50;;;23.42;76.38
42431;BME280;28070;47.462;19.036;2022-08-24T07:37:41;100210.91;;;23.45;76.32
42431;BME280;28070;47.462;19.036;2022-08-24T07:40:11;100214.78;;;23.52;76.45
42431;BME280;28070;47.462;19.036;2022-08-24T07:42:39;100214.97;;;23.60;75.53
42431;BME280;28070;47.462;19.036;2022-08-24T07:45:08;100208.66;;;23.81;75.04
42431;BME280;28070;47.462;19.036;2022-08-24T07:47:37;100216.78;;;23.90;74.40
42431;BME280;28070;47.462;19.036;2022-08-24T07:50:30;100211.81;;;24.05;74.54
42431;BME280;28070;47.462;19.036;2022-08-24T07:53:00;100212.53;;;24.07;73.83
42431;BME280;28070;47.462;19.036;2022-08-24T07:55:31;100216.22;;;24.25;71.02
42431;BME280;28070;47.462;19.036;2022-08-24T07:58:12;100210.19;;;24.43;71.08
42431;BME280;28070;47.462;19.036;2022-08-24T08:00:45;100213.59;;;24.45;70.83
42431;BME280;28070;47.462;19.036;2022-08-24T08:03:13;100218.56;;;24.40;70.28
42431;BME280;28070;47.462;19.036;2022-08-24T08:05:43;100212.88;;;24.43;69.81
42431;BME280;28070;47.462;19.036;2022-08-24T08:08:12;100222.25;;;24.48;70.44
42431;BME280;28070;47.462;19.036;2022-08-24T08:10:41;100220.13;;;24.61;70.54
42431;BME280;28070;47.462;19.036;2022-08-24T08:13:09;100222.25;;;24.68;70.21
42431;BME280;28070;47.462;19.036;2022-08-24T08:15:37;100218.09;;;24.83;69.74
42431;BME280;28070;47.462;19.036;2022-08-24T08:18:08;100221.81;;;24.91;68.84
42431;BME280;28070;47.462;19.036;2022-08-24T08:20:40;100221.81;;;24.82;68.37
42431;BME280;28070;47.462;19.036;2022-08-24T08:23:11;100221.50;;;24.94;68.53
42431;BME280;28070;47.462;19.036;2022-08-24T08:26:12;100219.38;;;25.08;67.73
42431;BME280;28070;47.462;19.036;2022-08-24T08:29:00;100223.47;;;25.12;66.76
42431;BME280;28070;47.462;19.036;2022-08-24T08:31:31;100226.06;;;25.04;66.69
42431;BME280;28070;47.462;19.036;2022-08-24T08:34:01;100228.19;;;25.10;67.02
42431;BME280;28070;47.462;19.036;2022-08-24T08:36:30;100228.91;;;25.02;67.25
42431;BME280;28070;47.462;19.036;2022-08-24T08:39:01;100228.91;;;25.02;66.87
42431;BME280;28070;47.462;19.036;2022-08-24T08:47:44;100221.69;;;25.77;64.76
42431;BME280;28070;47.462;19.036;2022-08-24T08:50:25;100231.72;;;25.94;63.86
42431;BME280;28070;47.462;19.036;2022-08-24T08:53:25;100237.69;;;26.16;61.83
42431;BME280;28070;47.462;19.036;2022-08-24T08:56:08;100227.41;;;26.19;60.48
42431;BME280;28070;47.462;19.036;2022-08-24T08:58:52;100230.47;;;26.52;59.69
42431;BME280;28070;47.462;19.036;2022-08-24T09:01:40;100237.63;;;26.79;58.32
42431;BME280;28070;47.462;19.036;2022-08-24T09:04:44;100232.03;;;26.98;57.41
42431;BME280;28070;47.462;19.036;2022-08-24T09:07:29;100237.53;;;26.88;57.19
42431;BME280;28070;47.462;19.036;2022-08-24T09:10:24;100237.78;;;26.95;57.45
42431;BME280;28070;47.462;19.036;2022-08-24T09:13:15;100236.97;;;27.20;56.40
42431;BME280;28070;47.462;19.036;2022-08-24T09:16:06;100237.00;;;27.28;56.36
42431;BME280;28070;47.462;19.036;2022-08-24T09:18:52;100243.41;;;27.19;55.32
42431;BME280;28070;47.462;19.036;2022-08-24T09:21:40;100241.81;;;27.09;56.03
42431;BME280;28070;47.462;19.036;2022-08-24T09:24:27;100230.03;;;27.26;55.42
42431;BME280;28070;47.462;19.036;2022-08-24T09:27:24;100230.97;;;27.43;55.94
42431;BME280;28070;47.462;19.036;2022-08-24T09:30:08;100226.22;;;27.37;55.12
42431;BME280;28070;47.462;19.036;2022-08-24T09:32:56;100231.53;;;27.46;55.34
42431;BME280;28070;47.462;19.036;2022-08-24T09:35:33;100230.22;;;27.59;54.43
42431;BME280;28070;47.462;19.036;2022-08-24T09:38:16;100228.13;;;27.70;53.93
42431;BME280;28070;47.462;19.036;2022-08-24T09:40:54;100229.06;;;27.61;54.56
42431;BME280;28070;47.462;19.036;2022-08-24T09:43:58;100222.25;;;27.57;54.28
42431;BME280;28070;47.462;19.036;2022-08-24T09:47:01;100220.84;;;27.79;54.65
42431;BME280;28070;47.462;19.036;2022-08-24T09:50:01;100226.44;;;27.77;52.92
42431;BME280;28070;47.462;19.036;2022-08-24T09:56:00;100217.19;;;27.96;51.00
42431;BME280;28070;47.462;19.036;2022-08-24T09:58:43;100205.22;;;28.31;51.08
42431;BME280;28070;47.462;19.036;2022-08-24T10:01:21;100208.66;;;28.50;51.44
42431;BME280;28070;47.462;19.036;2022-08-24T10:04:05;100200.84;;;28.63;49.77
42431;BME280;28070;47.462;19.036;2022-08-24T10:06:46;100202.88;;;28.85;50.30
42431;BME280;28070;47.462;19.036;2022-08-24T10:09:44;100200.50;;;28.74;49.30
42431;BME280;28070;47.462;19.036;2022-08-24T10:12:24;100211.34;;;28.41;49.97
42431;BME280;28070;47.462;19.036;2022-08-24T10:15:03;100208.56;;;28.17;51.40
42431;BME280;28070;47.462;19.036;2022-08-24T10:17:41;100219.56;;;28.07;52.16
42431;BME280;28070;47.462;19.036;2022-08-24T10:20:20;100213.63;;;28.04;52.29
42431;BME280;28070;47.462;19.036;2022-08-24T10:23:02;100215.28;;;27.89;52.65
42431;BME280;28070;47.462;19.036;2022-08-24T10:25:38;100214.56;;;27.70;53.04
42431;BME280;28070;47.462;19.036;2022-08-24T10:28:35;100215.09;;;27.56;54.08
42431;BME280;28070;47.462;19.036;2022-08-24T10:31:07;100222.03;;;27.76;53.29
42431;BME280;28070;47.462;19.036;2022-08-24T10:33:52;100225.06;;;27.73;53.32
42431;BME280;28070;47.462;19.036;2022-08-24T10:36:53;100221.91;;;27.94;52.71
42431;BME280;28070;47.462;19.036;2022-08-24T10:39:48;100227.28;;;27.78;52.45
42431;BME280;28070;47.462;19.036;2022-08-24T10:42:43;100220.06;;;28.03;52.59
42431;BME280;28070;47.462;19.036;2022-08-24T10:45:57;100215.97;;;27.91;53.15
42431;BME280;28070;47.462;19.036;2022-08-24T10:48:50;100212.78;;;27.95;53.55
42431;BME280;28070;47.462;19.036;2022-08-24T10:51:31;100221.91;;;27.94;53.96
42431;BME280;28070;47.462;19.036;2022-08-24T10:54:04;100216.56;;;27.68;54.96
42431;BME280;28070;47.462;19.036;2022-08-24T10:56:39;100221.94;;;27.60;55.46
42431;BME280;28070;47.462;19.036;2022-08-24T10:59:19;100221.53;;;27.55;56.15
42431;BME280;28070;47.462;19.036;2022-08-24T11:02:03;100225.03;;;27.65;55.96
42431;BME280;28070;47.462;19.036;2022-08-24T11:04:38;100230.13;;;27.68;56.25
42431;BME280;28070;47.462;19.036;2022-08-24T11:07:15;100223.97;;;27.58;56.80
42431;BME280;28070;47.462;19.036;2022-08-24T11:09:48;100219.59;;;27.65;56.69
42431;BME280;28070;47.462;19.036;2022-08-24T11:12:26;100224.78;;;27.84;56.49
42431;BME280;28070;47.462;19.036;2022-08-24T11:14:56;100227.13;;;27.79;56.70
42431;BME280;28070;47.462;19.036;2022-08-24T11:17:26;100224.44;;;27.88;55.74
42431;BME280;28070;47.462;19.036;2022-08-24T11:19:55;100222.09;;;28.01;54.86
42431;BME280;28070;47.462;19.036;2022-08-24T11:22:33;100229.91;;;27.96;55.62
42431;BME280;28070;47.462;19.036;2022-08-24T11:25:13;100226.00;;;28.06;55.35
42431;BME280;28070;47.462;19.036;2022-08-24T11:27:44;100224.84;;;28.09;55.80
42431;BME280;28070;47.462;19.036;2022-08-24T11:30:22;100219.56;;;27.99;56.07
42431;BME280;28070;47.462;19.036;2022-08-24T11:32:52;100227.84;;;27.90;56.44
42431;BME280;28070;47.462;19.036;2022-08-24T11:35:24;100230.72;;;27.88;56.13
42431;BME280;28070;47.462;19.036;2022-08-24T11:37:55;100230.88;;;27.95;56.08
42431;BME280;28070;47.462;19.036;2022-08-24T11:40:28;100234.19;;;27.38;59.28
42431;BME280;28070;47.462;19.036;2022-08-24T11:43:19;100239.91;;;26.83;63.78
42431;BME280;28070;47.462;19.036;2022-08-24T11:46:02;100242.94;;;25.62;70.13
42431;BME280;28070;47.462;19.036;2022-08-24T11:48:41;100226.03;;;25.13;73.01
42431;BME280;28070;47.462;19.036;2022-08-24T11:51:24;100235.03;;;24.75;75.59
42431;BME280;28070;47.462;19.036;2022-08-24T11:54:01;100236.91;;;24.55;77.21
42431;BME280;28070;47.462;19.036;2022-08-24T11:56:36;100240.59;;;24.45;78.25
42431;BME280;28070;47.462;19.036;2022-08-24T11:59:13;100241.28;;;24.47;78.86
42431;BME280;28070;47.462;19.036;2022-08-24T12:01:46;100240.75;;;24.53;79.55
42431;BME280;28070;47.462;19.036;2022-08-24T12:04:30;100242.16;;;24.47;80.05
42431;BME280;28070;47.462;19.036;2022-08-24T12:07:13;100247.41;;;24.49;80.39
42431;BME280;28070;47.462;19.036;2022-08-24T12:10:07;100246.25;;;24.61;80.26
42431;BME280;28070;47.462;19.036;2022-08-24T12:12:44;100245.13;;;24.73;79.22
42431;BME280;28070;47.462;19.036;2022-08-24T12:15:19;100245.09;;;25.12;77.15
42431;BME280;28070;47.462;19.036;2022-08-24T12:17:55;100247.06;;;25.29;75.29
42431;BME280;28070;47.462;19.036;2022-08-24T12:20:31;100248.53;;;25.51;73.23
42431;BME280;28070;47.462;19.036;2022-08-24T12:23:03;100240.88;;;25.84;71.31
42431;BME280;28070;47.462;19.036;2022-08-24T12:25:34;100252.16;;;26.06;69.93
42431;BME280;28070;47.462;19.036;2022-08-24T12:28:25;100245.59;;;26.27;69.53
42431;BME280;28070;47.462;19.036;2022-08-24T12:30:58;100245.16;;;26.85;67.26
42431;BME280;28070;47.462;19.036;2022-08-24T12:33:35;100260.25;;;26.52;65.63
42431;BME280;28070;47.462;19.036;2022-08-24T12:36:14;100264.13;;;26.49;66.50
42431;BME280;28070;47.462;19.036;2022-08-24T12:38:48;100253.06;;;26.43;67.50
42431;BME280;28070;47.462;19.036;2022-08-24T12:41:23;100243.53;;;26.38;67.44
42431;BME280;28070;47.462;19.036;2022-08-24T12:44:00;100241.50;;;26.23;67.43
42431;BME280;28070;47.462;19.036;2022-08-24T12:46:29;100245.53;;;25.91;68.64
42431;BME280;28070;47.462;19.036;2022-08-24T12:49:01;100246.88;;;25.77;70.35
42431;BME280;28070;47.462;19.036;2022-08-24T12:51:43;100252.88;;;25.81;70.41
42431;BME280;28070;47.462;19.036;2022-08-24T12:54:31;100245.63;;;25.62;72.20
42431;BME280;28070;47.462;19.036;2022-08-24T12:57:32;100238.28;;;25.55;71.99
42431;BME280;28070;47.462;19.036;2022-08-24T13:00:14;100238.72;;;25.50;72.43
42431;BME280;28070;47.462;19.036;2022-08-24T13:02:43;100234.97;;;25.70;71.91
42431;BME280;28070;47.462;19.036;2022-08-24T13:05:20;100236.72;;;25.89;71.22
42431;BME280;28070;47.462;19.036;2022-08-24T13:07:51;100236.84;;;25.88;71.13
42431;BME280;28070;47.462;19.036;2022-08-24T13:10:37;100235.38;;;25.66;75.56
42431;BME280;28070;47.462;19.036;2022-08-24T13:13:12;100238.28;;;25.17;80.20
42431;BME280;28070;47.462;19.036;2022-08-24T13:16:01;100230.75;;;24.82;83.75
42431;BME280;28070;47.462;19.036;2022-08-24T13:21:49;100239.44;;;24.86;85.65
42431;BME280;28070;47.462;19.036;2022-08-24T13:24:52;100239.28;;;24.87;86.59
42431;BME280;28070;47.462;19.036;2022-08-24T13:27:48;100244.84;;;24.76;88.47
42431;BME280;28070;47.462;19.036;2022-08-24T13:30:31;100252.53;;;24.61;88.03
42431;BME280;28070;47.462;19.036;2022-08-24T13:33:06;100255.22;;;24.52;88.03